Terminal Aerodrome Forecast
Issued by NWS

Home | Current Version | Previous Version | Graphics & Text | Print | Product List | Glossary On
Versions: 1 2 3 4 5 6 7 8 9 10 11 12 13 14 15 16 17 18
000
FTUS43 KTOP 200500
TAFMHK
TAF
KMHK 200520Z 2006/2106 21005KT P6SM SCT300 WS009/22035KT
     FM201400 20011KT P6SM SCT300
     FM201700 19015G21KT P6SM SCT050
     FM210000 19012KT P6SM SCT300=

USA.gov is the U.S. government's official web portal to all federal, state and local government web resources and services.